This is the latest recevied weather packets stored in our database for station/object CA2JAT-13. If no packets are shown the sender has not sent any weather packets the latest 10 day(s).
| Time | Temp. | Humidity | Pressure | Rain* | Wind** | Luminosity | Snow |
|---|---|---|---|---|---|---|---|
| 1778130024 | 12.78° C | 87% | 1021.2 hPa | 0 mm | - | 0 W/m² | - |
| 1778128220 | 12.78° C | 87% | 1021.5 hPa | 0 mm | - | 0 W/m² | - |
| 1778126416 | 13.33° C | 84% | 1021.3 hPa | 0 mm | - | 0 W/m² | - |
| 1778124611 | 13.89° C | 78% | 1021.3 hPa | 0 mm | - | 0 W/m² | - |
| 1778123521 | 13.89° C | 77% | 1021.2 hPa | 0 mm | - | 0 W/m² | - |
| 1778119915 | 14.44° C | 75% | 1021.1 hPa | 0 mm | - | 0 W/m² | - |
| 1778118112 | 15° C | 72% | 1020.9 hPa | 0 mm | - | 0 W/m² | - |
| 1778116278 | 15° C | 71% | 1020.6 hPa | 0 mm | - | 0 W/m² | - |
| 1778112671 | 15.56° C | 67% | 1020 hPa | 0 mm | - | 0 W/m² | - |
| 1778110867 | 16.11° C | 64% | 1019.6 hPa | 0 mm | - | 0 W/m² | - |
| 1778109065 | 17.22° C | 54% | 1019 hPa | 0 mm | - | 0 W/m² | - |
| 1778107262 | 17.78° C | 49% | 1018.7 hPa | 0 mm | - | 0 W/m² | - |
| 1778105458 | 18.89° C | 40% | 1017.9 hPa | 0 mm | - | 7 W/m² | - |
| 1778103655 | 20.56° C | 32% | 1017.4 hPa | 0 mm | - | 65 W/m² | - |
| 1778100049 | 21.67° C | 28% | 1017.4 hPa | 0 mm | - | 233 W/m² | - |
| 1778098246 | 22.78° C | 27% | 1017 hPa | 0 mm | - | 373 W/m² | - |
| 1778096441 | 23.89° C | 27% | 1016.6 hPa | 0 mm | - | 458 W/m² | - |
| 1778094639 | 23.89° C | 26% | 1016.3 hPa | 0 mm | - | 494 W/m² | - |
| 1778092836 | 23.89° C | 27% | 1016.2 hPa | 0 mm | - | 591 W/m² | - |
| 1778091033 | 23.89° C | 26% | 1016.2 hPa | 0 mm | - | 631 W/m² | - |
| 1778089230 | 23.89° C | 29% | 1016.4 hPa | 0 mm | - | 653 W/m² | - |
| 1778087428 | 23.33° C | 33% | 1017 hPa | 0 mm | - | 656 W/m² | - |
| 1778085624 | 22.78° C | 32% | 1017.4 hPa | 0 mm | - | 655 W/m² | - |
| 1778083821 | 21.11° C | 39% | 1018.5 hPa | 0 mm | - | 622 W/m² | - |
| 1778082018 | 19.44° C | 43% | 1019.2 hPa | 0 mm | - | 587 W/m² | - |
* Rain latest hour (hover to see other rain measurements)
** Current wind speed in m/s (hover to see current wind gust speed)